Time;durP1;ratioP1;P1;durP2;ratioP2;P2;SDS_P1;SDS_P2;PMS_P1;PMS_P2;Temp;Humidity;BMP_temperature;BMP_pressure;BME280_temperature;BME280_humidity;BME280_pressure;Samples;Min_cycle;Max_cycle;Signal;HPM_P1;HPM_P2
2023/09/22 00:05:12;;;;;;;;;;;;;;;;;;5111797;27;20380;-70
2023/09/22 00:07:38;;;;;;;;;;;;;;;;;;5111735;28;19959;-71
2023/09/22 00:10:06;;;;;;;;;;;;;;;;;;5111615;28;20379;-71
2023/09/22 00:12:54;;;;;;;;;;;;;;;;;;5112272;27;19916;-70
2023/09/22 00:15:21;;;;;;;;;;;;;;;;;;5111720;28;19912;-70
2023/09/22 00:17:47;;;;;;;;;;;;;;;;;;5111283;28;19947;-70
2023/09/22 00:20:15;;;;;;;;;;;;;;;;;;5111656;28;19919;-70
2023/09/22 00:22:41;;;;;;;;;;;;;;;;;;5111708;28;20003;-70
2023/09/22 00:25:08;;;;;;;;;;;;;;;;;;5111019;28;19944;-70
2023/09/22 00:27:34;;;;;;;;;;;;;;;;;;5111442;28;19960;-70
2023/09/22 00:30:00;;;;;;;;;;;;;;;;;;5111410;28;20376;-70
2023/09/22 00:33:46;;;;;;;;;;;;;;;;;;5091875;27;19919;-70
2023/09/22 00:36:36;;;;;;;;;;;;;;;;;;5091445;28;19923;-70
2023/09/22 00:39:04;;;;;;;;;;;;;;;;;;5090949;28;19916;-70
2023/09/22 00:41:30;;;;;;;;;;;;;;;;;;5090043;28;19931;-70
2023/09/22 00:43:56;;;;;;;;;;;;;;;;;;5091350;28;19912;-70
2023/09/22 00:46:23;;;;;;;;;;;;;;;;;;5089704;28;20006;-70
2023/09/22 00:48:49;;;;;;;;;;;;;;;;;;5089951;28;19915;-70
2023/09/22 00:51:19;;;;;;;;;;;;;;;;;;5091089;28;20287;-70
2023/09/22 00:53:44;;;;;;;;;;;;;;;;;;5090770;28;19944;-70
2023/09/22 00:56:10;;;;;;;;;;;;;;;;;;5090968;28;19916;-70
2023/09/22 01:00:13;;;;;;;;;;;;;;;;;;5091449;27;20380;-70
2023/09/22 01:05:03;;;;;;;;;;;;;;;;;;5173880;27;19915;-70
2023/09/22 01:08:42;;;;;;;;;;;;;;;;;;5112178;27;19916;-70
2023/09/22 01:11:08;;;;;;;;;;;;;;;;;;5111770;28;20007;-70
2023/09/22 01:13:34;;;;;;;;;;;;;;;;;;5111505;28;19908;-70
2023/09/22 01:16:00;;;;;;;;;;;;;;;;;;5111662;28;19909;-71
2023/09/22 01:19:58;;;;;;;;;;;;;;;;;;5111969;27;19928;-70
2023/09/22 01:22:24;;;;;;;;;;;;;;;;;;5111325;28;19918;-70
2023/09/22 01:24:50;;;;;;;;;;;;;;;;;;5111610;28;19962;-70
2023/09/22 01:27:15;;;;;;;;;;;;;;;;;;5111281;28;19915;-70
2023/09/22 01:29:41;;;;;;;;;;;;;;;;;;5110333;28;19915;-70
2023/09/22 01:32:09;;;;;;;;;;;;;;;;;;5111631;28;19912;-70
2023/09/22 01:34:35;;;;;;;;;;;;;;;;;;5111149;28;19976;-70
2023/09/22 01:37:07;;;;;;;;;;;;;;;;;;5111420;28;20411;-70
2023/09/22 01:39:33;;;;;;;;;;;;;;;;;;5111349;28;19916;-70
2023/09/22 01:41:59;;;;;;;;;;;;;;;;;;5111175;28;19908;-70
2023/09/22 01:44:25;;;;;;;;;;;;;;;;;;5111572;28;20386;-70
2023/09/22 01:48:36;;;;;;;;;;;;;;;;;;5111913;27;19923;-70
2023/09/22 01:51:05;;;;;;;;;;;;;;;;;;5111775;28;19957;-70
2023/09/22 01:55:58;;;;;;;;;;;;;;;;;;5091193;27;19923;-70
2023/09/22 02:00:22;;;;;;;;;;;;;;;;;;5071906;28;19923;-70
2023/09/22 02:03:08;;;;;;;;;;;;;;;;;;5111830;27;19912;-70
2023/09/22 02:05:35;;;;;;;;;;;;;;;;;;5110437;28;19912;-70
2023/09/22 02:08:27;;;;;;;;;;;;;;;;;;5092004;27;19922;-70
2023/09/22 02:11:48;;;;;;;;;;;;;;;;;;5091850;27;19916;-70
2023/09/22 02:14:14;;;;;;;;;;;;;;;;;;5091402;28;20447;-70
2023/09/22 02:18:12;;;;;;;;;;;;;;;;;;5111404;27;20302;-70
2023/09/22 02:21:39;;;;;;;;;;;;;;;;;;5153394;27;20011;-70
2023/09/22 02:25:52;;;;;;;;;;;;;;;;;;5091623;27;19912;-70
2023/09/22 02:29:59;;;;;;;;;;;;;;;;;;5112667;27;19916;-71
2023/09/22 02:33:56;;;;;;;;;;;;;;;;;;5091953;28;19922;-70
2023/09/22 02:36:23;;;;;;;;;;;;;;;;;;5091834;28;20007;-70
2023/09/22 02:38:49;;;;;;;;;;;;;;;;;;5090990;28;19930;-70
2023/09/22 02:41:15;;;;;;;;;;;;;;;;;;5089941;28;19963;-70
2023/09/22 02:43:41;;;;;;;;;;;;;;;;;;5089973;28;19908;-70
2023/09/22 02:46:07;;;;;;;;;;;;;;;;;;5090817;28;20368;-70
2023/09/22 02:48:33;;;;;;;;;;;;;;;;;;5089904;28;19909;-70
2023/09/22 02:50:59;;;;;;;;;;;;;;;;;;5091108;28;19916;-70
2023/09/22 03:03:37;;;;;;;;;;;;;;;;;;5112232;27;19916;-70
2023/09/22 03:07:50;;;;;;;;;;;;;;;;;;5091194;27;19935;-70
2023/09/22 03:12:47;;;;;;;;;;;;;;;;;;5111974;27;19916;-70
2023/09/22 03:15:14;;;;;;;;;;;;;;;;;;5112319;28;20466;-71
2023/09/22 03:21:14;;;;;;;;;;;;;;;;;;5111545;27;19934;-71
2023/09/22 03:25:22;;;;;;;;;;;;;;;;;;5092198;28;19922;-71
2023/09/22 03:29:20;;;;;;;;;;;;;;;;;;5091516;28;19918;-70
2023/09/22 03:31:46;;;;;;;;;;;;;;;;;;5091366;28;20342;-70
2023/09/22 03:34:12;;;;;;;;;;;;;;;;;;5090766;28;19909;-70
2023/09/22 03:36:37;;;;;;;;;;;;;;;;;;5091373;28;20003;-70
2023/09/22 03:39:07;;;;;;;;;;;;;;;;;;5091209;28;19909;-70
2023/09/22 03:43:18;;;;;;;;;;;;;;;;;;5091917;28;20398;-70
2023/09/22 03:48:35;;;;;;;;;;;;;;;;;;5111839;27;19922;-70
2023/09/22 03:51:01;;;;;;;;;;;;;;;;;;5111782;28;20350;-70
2023/09/22 03:53:27;;;;;;;;;;;;;;;;;;5111700;28;19953;-71
2023/09/22 04:01:03;;;;;;;;;;;;;;;;;;5091967;28;19923;-70
2023/09/22 04:03:29;;;;;;;;;;;;;;;;;;5090981;28;20007;-70
2023/09/22 04:05:55;;;;;;;;;;;;;;;;;;5091849;28;19961;-70
2023/09/22 04:08:21;;;;;;;;;;;;;;;;;;5091254;28;19938;-70
2023/09/22 04:10:47;;;;;;;;;;;;;;;;;;5089466;28;19912;-70
2023/09/22 04:13:30;;;;;;;;;;;;;;;;;;5112244;27;19912;-70
2023/09/22 04:15:58;;;;;;;;;;;;;;;;;;5111243;28;20007;-70
2023/09/22 04:18:29;;;;;;;;;;;;;;;;;;5110351;28;19956;-70
2023/09/22 04:23:09;;;;;;;;;;;;;;;;;;5091095;27;19922;-71
2023/09/22 04:27:17;;;;;;;;;;;;;;;;;;5090365;27;19923;-72
2023/09/22 04:29:43;;;;;;;;;;;;;;;;;;5091394;28;19999;-72
2023/09/22 04:32:09;;;;;;;;;;;;;;;;;;5089579;28;19923;-70
2023/09/22 04:34:35;;;;;;;;;;;;;;;;;;5091253;28;19908;-72
2023/09/22 04:37:04;;;;;;;;;;;;;;;;;;5087957;28;19916;-70
2023/09/22 04:39:31;;;;;;;;;;;;;;;;;;5090865;28;19959;-70
2023/09/22 04:41:57;;;;;;;;;;;;;;;;;;5089014;28;19908;-71
2023/09/22 04:44:23;;;;;;;;;;;;;;;;;;5089013;28;20207;-71
2023/09/22 04:46:49;;;;;;;;;;;;;;;;;;5088888;28;20352;-71
2023/09/22 04:49:15;;;;;;;;;;;;;;;;;;5088905;28;19961;-71
2023/09/22 04:51:42;;;;;;;;;;;;;;;;;;5088992;28;19930;-71
2023/09/22 04:58:32;;;;;;;;;;;;;;;;;;5152512;27;20029;-70
2023/09/22 05:01:30;;;;;;;;;;;;;;;;;;5091972;28;20273;-70
2023/09/22 05:03:56;;;;;;;;;;;;;;;;;;5091330;28;20364;-69
2023/09/22 05:06:22;;;;;;;;;;;;;;;;;;5090970;28;19909;-70
2023/09/22 05:08:48;;;;;;;;;;;;;;;;;;5091292;28;19935;-70
2023/09/22 05:11:14;;;;;;;;;;;;;;;;;;5091176;28;19955;-70
2023/09/22 05:13:40;;;;;;;;;;;;;;;;;;5090633;28;19912;-70
2023/09/22 05:16:06;;;;;;;;;;;;;;;;;;5089685;28;20364;-70
2023/09/22 05:18:33;;;;;;;;;;;;;;;;;;5091006;28;19909;-70
2023/09/22 05:22:15;;;;;;;;;;;;;;;;;;5119809;27;19920;-69
2023/09/22 05:24:41;;;;;;;;;;;;;;;;;;5100507;28;20006;-69
2023/09/22 05:29:33;;;;;;;;;;;;;;;;;;5084789;27;20406;-68
2023/09/22 05:35:47;;;;;;;;;;;;;;;;;;5078990;27;19920;-67
2023/09/22 05:39:14;;;;;;;;;;;;;;;;;;5120146;27;19926;-68
2023/09/22 05:41:40;;;;;;;;;;;;;;;;;;5112118;27;19955;-68
2023/09/22 05:44:07;;;;;;;;;;;;;;;;;;5098322;28;19959;-68
2023/09/22 05:46:34;;;;;;;;;;;;;;;;;;5084339;28;20009;-69
2023/09/22 05:49:00;;;;;;;;;;;;;;;;;;5103115;28;19912;-69
2023/09/22 05:51:25;;;;;;;;;;;;;;;;;;5104958;28;19952;-69
2023/09/22 05:53:51;;;;;;;;;;;;;;;;;;5106938;28;19981;-69
2023/09/22 05:56:17;;;;;;;;;;;;;;;;;;5113873;28;19923;-68
2023/09/22 05:58:44;;;;;;;;;;;;;;;;;;5123965;28;19939;-68
2023/09/22 06:01:10;;;;;;;;;;;;;;;;;;5119275;27;19916;-68
2023/09/22 06:03:37;;;;;;;;;;;;;;;;;;5109645;28;19984;-68
2023/09/22 06:06:03;;;;;;;;;;;;;;;;;;5121666;27;19911;-68
2023/09/22 06:11:28;;;;;;;;;;;;;;;;;;5098508;27;19924;-68
2023/09/22 06:13:55;;;;;;;;;;;;;;;;;;5087742;28;19926;-68
2023/09/22 06:16:23;;;;;;;;;;;;;;;;;;5086647;28;19964;-67
2023/09/22 06:18:49;;;;;;;;;;;;;;;;;;5086877;28;19912;-67
2023/09/22 06:21:15;;;;;;;;;;;;;;;;;;5088592;28;20280;-67
2023/09/22 06:24:50;;;;;;;;;;;;;;;;;;5109446;27;19924;-68
2023/09/22 06:27:43;;;;;;;;;;;;;;;;;;5108937;27;20371;-68
2023/09/22 06:30:54;;;;;;;;;;;;;;;;;;5109222;27;20388;-66
2023/09/22 06:33:19;;;;;;;;;;;;;;;;;;5109746;28;19923;-66
2023/09/22 06:40:32;;;;;;;;;;;;;;;;;;5069404;28;20289;-66
2023/09/22 06:42:58;;;;;;;;;;;;;;;;;;5063104;28;19921;-67
2023/09/22 06:45:24;;;;;;;;;;;;;;;;;;5049431;28;19913;-66
2023/09/22 06:47:50;;;;;;;;;;;;;;;;;;5045948;28;20000;-67
2023/09/22 06:51:31;;;;;;;;;;;;;;;;;;5046685;28;19921;-66
2023/09/22 06:54:30;;;;;;;;;;;;;;;;;;5086401;28;20281;-69
2023/09/22 07:01:27;;;;;;;;;;;;;;;;;;5087134;27;20010;-68
2023/09/22 07:03:53;;;;;;;;;;;;;;;;;;5086964;28;20068;-67
2023/09/22 07:06:20;;;;;;;;;;;;;;;;;;5087714;28;19916;-68
2023/09/22 07:08:48;;;;;;;;;;;;;;;;;;5087086;28;19923;-67
2023/09/22 07:13:43;;;;;;;;;;;;;;;;;;5071479;27;2112331;-68
2023/09/22 07:16:09;;;;;;;;;;;;;;;;;;5128104;28;19957;-69
2023/09/22 07:18:36;;;;;;;;;;;;;;;;;;5118212;28;20449;-70
2023/09/22 07:24:08;;;;;;;;;;;;;;;;;;5084763;27;20261;-68
2023/09/22 07:28:55;;;;;;;;;;;;;;;;;;5065590;28;19931;-67
2023/09/22 07:31:21;;;;;;;;;;;;;;;;;;5052523;28;19912;-67
2023/09/22 07:35:24;;;;;;;;;;;;;;;;;;5086354;27;19931;-67
2023/09/22 07:37:50;;;;;;;;;;;;;;;;;;5075984;28;19916;-67
2023/09/22 07:41:08;;;;;;;;;;;;;;;;;;5088025;28;19916;-69
2023/09/22 07:43:35;;;;;;;;;;;;;;;;;;5067537;28;19927;-68
2023/09/22 07:47:44;;;;;;;;;;;;;;;;;;5109305;27;19920;-68
2023/09/22 07:50:11;;;;;;;;;;;;;;;;;;5107283;28;19990;-69
2023/09/22 07:54:42;;;;;;;;;;;;;;;;;;5081274;28;19916;-68
2023/09/22 07:58:50;;;;;;;;;;;;;;;;;;5106678;27;19919;-69
2023/09/22 08:03:38;;;;;;;;;;;;;;;;;;5135451;27;20428;-67
2023/09/22 08:06:05;;;;;;;;;;;;;;;;;;5112632;28;19951;-68
2023/09/22 08:10:38;;;;;;;;;;;;;;;;;;5105405;27;19919;-68
2023/09/22 08:13:12;;;;;;;;;;;;;;;;;;5105172;28;19912;-67
2023/09/22 08:15:38;;;;;;;;;;;;;;;;;;5103029;28;20002;-67
2023/09/22 08:18:05;;;;;;;;;;;;;;;;;;5085610;28;20014;-68
2023/09/22 08:22:12;;;;;;;;;;;;;;;;;;5136444;27;19920;-68
2023/09/22 08:24:38;;;;;;;;;;;;;;;;;;5122356;27;19912;-66
2023/09/22 08:27:04;;;;;;;;;;;;;;;;;;5120825;28;19962;-68
2023/09/22 08:29:30;;;;;;;;;;;;;;;;;;5117907;28;19912;-68
2023/09/22 08:31:58;;;;;;;;;;;;;;;;;;5111346;28;19969;-67
2023/09/22 08:34:25;;;;;;;;;;;;;;;;;;5123634;28;19915;-67
2023/09/22 08:37:00;;;;;;;;;;;;;;;;;;5084491;27;19923;-67
2023/09/22 08:39:26;;;;;;;;;;;;;;;;;;5073554;28;19916;-68
2023/09/22 08:41:52;;;;;;;;;;;;;;;;;;5085485;28;19909;-68
2023/09/22 08:48:05;;;;;;;;;;;;;;;;;;5105268;27;19916;-68
2023/09/22 08:50:31;;;;;;;;;;;;;;;;;;5105530;28;19920;-68
2023/09/22 08:52:57;;;;;;;;;;;;;;;;;;5117533;28;19968;-68
2023/09/22 08:55:24;;;;;;;;;;;;;;;;;;5107564;28;19991;-68
2023/09/22 08:57:50;;;;;;;;;;;;;;;;;;5111605;28;19964;-67
2023/09/22 09:00:18;;;;;;;;;;;;;;;;;;5114549;28;19915;-69
2023/09/22 09:02:45;;;;;;;;;;;;;;;;;;5119291;28;19927;-69
2023/09/22 09:05:11;;;;;;;;;;;;;;;;;;5119663;28;20280;-69
2023/09/22 09:07:37;;;;;;;;;;;;;;;;;;5107843;28;19916;-69
2023/09/22 09:10:05;;;;;;;;;;;;;;;;;;5116641;28;19917;-68
2023/09/22 09:12:33;;;;;;;;;;;;;;;;;;5119567;28;19980;-69
2023/09/22 09:15:00;;;;;;;;;;;;;;;;;;5107076;28;19953;-70
2023/09/22 09:18:31;;;;;;;;;;;;;;;;;;5108310;27;19920;-69
2023/09/22 09:20:56;;;;;;;;;;;;;;;;;;5109653;28;19919;-69
2023/09/22 09:23:23;;;;;;;;;;;;;;;;;;5109718;28;19908;-70
2023/09/22 09:25:49;;;;;;;;;;;;;;;;;;5116875;28;19907;-69
2023/09/22 09:28:16;;;;;;;;;;;;;;;;;;5110427;28;19988;-70
2023/09/22 09:32:52;;;;;;;;;;;;;;;;;;5108854;27;19943;-70
2023/09/22 09:35:19;;;;;;;;;;;;;;;;;;5110873;28;20359;-71
2023/09/22 09:37:46;;;;;;;;;;;;;;;;;;5105122;28;19908;-70
2023/09/22 09:40:12;;;;;;;;;;;;;;;;;;5123997;28;20357;-68
2023/09/22 09:42:38;;;;;;;;;;;;;;;;;;5108848;28;20415;-69
2023/09/22 09:45:49;;;;;;;;;;;;;;;;;;5082879;28;19920;-69
2023/09/22 09:48:16;;;;;;;;;;;;;;;;;;5087253;28;19917;-68
2023/09/22 09:50:42;;;;;;;;;;;;;;;;;;5086827;28;20429;-70
2023/09/22 09:53:08;;;;;;;;;;;;;;;;;;5085207;28;19930;-72
2023/09/22 09:55:34;;;;;;;;;;;;;;;;;;5085175;28;20356;-72
2023/09/22 09:58:00;;;;;;;;;;;;;;;;;;5086515;28;20026;-70
2023/09/22 10:00:26;;;;;;;;;;;;;;;;;;5084850;28;20530;-71
2023/09/22 10:02:57;;;;;;;;;;;;;;;;;;5085616;28;20280;-70
2023/09/22 10:05:23;;;;;;;;;;;;;;;;;;5087262;28;19920;-71
2023/09/22 10:07:49;;;;;;;;;;;;;;;;;;5086369;28;19921;-70
2023/09/22 10:10:15;;;;;;;;;;;;;;;;;;5095541;28;20445;-69
2023/09/22 10:12:40;;;;;;;;;;;;;;;;;;5099460;28;20017;-71
2023/09/22 10:15:07;;;;;;;;;;;;;;;;;;5085570;28;19913;-70
2023/09/22 10:17:33;;;;;;;;;;;;;;;;;;5085022;28;19908;-69
2023/09/22 10:19:58;;;;;;;;;;;;;;;;;;5083104;28;20425;-70
2023/09/22 10:22:24;;;;;;;;;;;;;;;;;;5086096;28;20405;-72
2023/09/22 10:24:51;;;;;;;;;;;;;;;;;;5086207;28;19920;-70
2023/09/22 10:27:17;;;;;;;;;;;;;;;;;;5087186;28;19963;-70
2023/09/22 10:29:45;;;;;;;;;;;;;;;;;;5084571;28;19912;-70
2023/09/22 10:32:11;;;;;;;;;;;;;;;;;;5084567;28;19913;-70
2023/09/22 10:34:37;;;;;;;;;;;;;;;;;;5086540;28;19915;-70
2023/09/22 10:37:03;;;;;;;;;;;;;;;;;;5083487;28;19913;-71
2023/09/22 10:39:29;;;;;;;;;;;;;;;;;;5084781;28;19955;-70
2023/09/22 10:41:55;;;;;;;;;;;;;;;;;;5084664;28;19916;-70
2023/09/22 10:44:21;;;;;;;;;;;;;;;;;;5078471;28;19920;-70
2023/09/22 10:46:47;;;;;;;;;;;;;;;;;;5082506;28;19974;-71
2023/09/22 10:49:13;;;;;;;;;;;;;;;;;;5084337;28;19919;-70
2023/09/22 10:51:39;;;;;;;;;;;;;;;;;;5084147;28;19920;-72
2023/09/22 10:54:05;;;;;;;;;;;;;;;;;;5087952;28;19916;-70
2023/09/22 10:56:31;;;;;;;;;;;;;;;;;;5076053;28;19912;-71
2023/09/22 10:58:57;;;;;;;;;;;;;;;;;;5072744;28;19947;-71
2023/09/22 11:01:23;;;;;;;;;;;;;;;;;;5074816;28;20371;-72
2023/09/22 11:03:51;;;;;;;;;;;;;;;;;;5073029;28;19979;-70
2023/09/22 11:06:17;;;;;;;;;;;;;;;;;;5075732;28;19916;-71
2023/09/22 11:08:43;;;;;;;;;;;;;;;;;;5077997;28;20027;-71
2023/09/22 11:11:09;;;;;;;;;;;;;;;;;;5073904;28;19909;-71
2023/09/22 11:13:36;;;;;;;;;;;;;;;;;;5073267;28;20402;-72
2023/09/22 11:16:02;;;;;;;;;;;;;;;;;;5072536;28;19912;-71
2023/09/22 11:18:28;;;;;;;;;;;;;;;;;;5069343;28;19943;-72
2023/09/22 11:20:54;;;;;;;;;;;;;;;;;;5072828;28;20376;-70
2023/09/22 11:23:20;;;;;;;;;;;;;;;;;;5072625;28;19913;-70
2023/09/22 11:25:46;;;;;;;;;;;;;;;;;;5074007;28;20335;-69
2023/09/22 11:28:12;;;;;;;;;;;;;;;;;;5077729;28;19978;-69
2023/09/22 11:30:39;;;;;;;;;;;;;;;;;;5074534;28;20015;-72
2023/09/22 11:33:05;;;;;;;;;;;;;;;;;;5075062;28;19909;-70
2023/09/22 11:35:37;;;;;;;;;;;;;;;;;;5075068;28;19977;-70
2023/09/22 11:38:04;;;;;;;;;;;;;;;;;;5074586;28;19916;-68
2023/09/22 11:40:29;;;;;;;;;;;;;;;;;;5073472;28;19919;-68
2023/09/22 11:42:56;;;;;;;;;;;;;;;;;;5074936;28;19909;-70
2023/09/22 11:45:22;;;;;;;;;;;;;;;;;;5073929;28;19973;-71
2023/09/22 11:47:49;;;;;;;;;;;;;;;;;;5074909;28;19951;-69
2023/09/22 11:50:15;;;;;;;;;;;;;;;;;;5072840;28;19912;-70
2023/09/22 11:52:41;;;;;;;;;;;;;;;;;;5073455;28;19943;-69
2023/09/22 11:55:07;;;;;;;;;;;;;;;;;;5072173;28;19951;-69
2023/09/22 11:57:33;;;;;;;;;;;;;;;;;;5072951;28;19909;-69
2023/09/22 11:59:59;;;;;;;;;;;;;;;;;;5071885;28;19962;-70
2023/09/22 12:02:26;;;;;;;;;;;;;;;;;;5072235;28;19940;-70
2023/09/22 12:04:52;;;;;;;;;;;;;;;;;;5072878;28;20342;-69
2023/09/22 12:07:19;;;;;;;;;;;;;;;;;;5070443;28;19909;-70
2023/09/22 12:09:45;;;;;;;;;;;;;;;;;;5071413;28;19924;-69
2023/09/22 12:12:12;;;;;;;;;;;;;;;;;;5073747;28;19913;-70
2023/09/22 12:14:38;;;;;;;;;;;;;;;;;;5073021;28;19923;-71
2023/09/22 12:17:04;;;;;;;;;;;;;;;;;;5073400;28;19908;-72
2023/09/22 12:19:30;;;;;;;;;;;;;;;;;;5071500;28;19959;-72
2023/09/22 12:21:56;;;;;;;;;;;;;;;;;;5072377;28;19955;-71
2023/09/22 12:24:22;;;;;;;;;;;;;;;;;;5072538;28;19921;-72
2023/09/22 12:26:48;;;;;;;;;;;;;;;;;;5073301;28;20004;-70
2023/09/22 12:29:16;;;;;;;;;;;;;;;;;;5082466;28;19923;-70
2023/09/22 12:31:42;;;;;;;;;;;;;;;;;;5080592;28;19916;-72
2023/09/22 12:34:08;;;;;;;;;;;;;;;;;;5074204;28;19916;-73
2023/09/22 12:36:34;;;;;;;;;;;;;;;;;;5074222;28;19916;-73
2023/09/22 12:39:00;;;;;;;;;;;;;;;;;;5074621;28;19909;-73
2023/09/22 12:41:26;;;;;;;;;;;;;;;;;;5074549;28;19999;-73
2023/09/22 12:43:52;;;;;;;;;;;;;;;;;;5073884;28;20386;-74
2023/09/22 12:46:18;;;;;;;;;;;;;;;;;;5074429;28;19908;-73
2023/09/22 12:48:44;;;;;;;;;;;;;;;;;;5074280;28;19909;-73
2023/09/22 12:51:13;;;;;;;;;;;;;;;;;;5073975;28;20007;-73
2023/09/22 12:53:39;;;;;;;;;;;;;;;;;;5074519;28;19969;-73
2023/09/22 12:56:05;;;;;;;;;;;;;;;;;;5074250;28;19915;-73
2023/09/22 12:58:31;;;;;;;;;;;;;;;;;;5073808;28;19912;-73
2023/09/22 13:00:57;;;;;;;;;;;;;;;;;;5074328;28;20283;-73
2023/09/22 13:03:23;;;;;;;;;;;;;;;;;;5072388;28;19962;-73
2023/09/22 13:05:49;;;;;;;;;;;;;;;;;;5074248;28;19917;-73
2023/09/22 13:08:16;;;;;;;;;;;;;;;;;;5074114;28;20253;-73
2023/09/22 13:10:42;;;;;;;;;;;;;;;;;;5073678;28;19916;-73
2023/09/22 13:13:08;;;;;;;;;;;;;;;;;;5074028;28;19915;-73
2023/09/22 13:15:34;;;;;;;;;;;;;;;;;;5073945;28;19995;-73
2023/09/22 13:18:00;;;;;;;;;;;;;;;;;;5073617;28;19908;-73
2023/09/22 13:20:26;;;;;;;;;;;;;;;;;;5073664;28;19931;-73
2023/09/22 13:22:52;;;;;;;;;;;;;;;;;;5073830;28;19995;-73
2023/09/22 13:25:18;;;;;;;;;;;;;;;;;;5073471;28;19974;-73
2023/09/22 13:27:44;;;;;;;;;;;;;;;;;;5073846;28;20365;-73
2023/09/22 13:30:10;;;;;;;;;;;;;;;;;;5073890;28;19909;-73
2023/09/22 13:32:36;;;;;;;;;;;;;;;;;;5073677;28;19909;-72
2023/09/22 13:35:02;;;;;;;;;;;;;;;;;;5073771;28;20380;-72
2023/09/22 13:37:28;;;;;;;;;;;;;;;;;;5073762;28;20364;-73
2023/09/22 13:39:54;;;;;;;;;;;;;;;;;;5073407;28;19954;-72
2023/09/22 13:42:20;;;;;;;;;;;;;;;;;;5073695;28;19908;-72
2023/09/22 13:44:46;;;;;;;;;;;;;;;;;;5073408;28;20011;-72
2023/09/22 13:47:12;;;;;;;;;;;;;;;;;;5073307;28;20318;-73
2023/09/22 13:49:38;;;;;;;;;;;;;;;;;;5072318;28;19913;-73
2023/09/22 13:52:04;;;;;;;;;;;;;;;;;;5073628;28;19909;-73
2023/09/22 13:54:30;;;;;;;;;;;;;;;;;;5073058;28;19966;-73
2023/09/22 13:56:56;;;;;;;;;;;;;;;;;;5073503;28;19909;-73
2023/09/22 13:59:22;;;;;;;;;;;;;;;;;;5073554;28;19915;-73
2023/09/22 14:01:48;;;;;;;;;;;;;;;;;;5073091;28;19920;-73
2023/09/22 14:04:15;;;;;;;;;;;;;;;;;;5072112;28;19955;-73
2023/09/22 14:06:41;;;;;;;;;;;;;;;;;;5073458;28;19913;-73
2023/09/22 14:09:08;;;;;;;;;;;;;;;;;;5073103;28;19995;-72
2023/09/22 14:11:34;;;;;;;;;;;;;;;;;;5073372;28;19909;-73
2023/09/22 14:14:00;;;;;;;;;;;;;;;;;;5073027;28;19908;-73
2023/09/22 14:16:26;;;;;;;;;;;;;;;;;;5072315;28;19909;-72
2023/09/22 14:18:53;;;;;;;;;;;;;;;;;;5073320;28;19915;-72
2023/09/22 14:21:19;;;;;;;;;;;;;;;;;;5072854;28;20372;-73
2023/09/22 14:23:45;;;;;;;;;;;;;;;;;;5073294;28;19915;-72
2023/09/22 14:26:11;;;;;;;;;;;;;;;;;;5073624;28;20376;-72
2023/09/22 14:28:37;;;;;;;;;;;;;;;;;;5073059;28;19955;-73
2023/09/22 14:31:04;;;;;;;;;;;;;;;;;;5074478;28;19912;-72
2023/09/22 14:33:30;;;;;;;;;;;;;;;;;;5076835;28;19940;-72
2023/09/22 14:35:56;;;;;;;;;;;;;;;;;;5076534;28;19956;-72
2023/09/22 14:38:22;;;;;;;;;;;;;;;;;;5077011;28;19915;-72
2023/09/22 14:40:48;;;;;;;;;;;;;;;;;;5076777;28;19969;-73
2023/09/22 14:43:14;;;;;;;;;;;;;;;;;;5076329;28;19908;-73
2023/09/22 14:45:40;;;;;;;;;;;;;;;;;;5076497;28;19920;-73
2023/09/22 14:48:06;;;;;;;;;;;;;;;;;;5076689;28;19909;-73
2023/09/22 14:50:32;;;;;;;;;;;;;;;;;;5075018;28;19951;-72
2023/09/22 14:52:59;;;;;;;;;;;;;;;;;;5076936;28;19912;-72
2023/09/22 14:55:24;;;;;;;;;;;;;;;;;;5076624;28;19954;-72
2023/09/22 14:57:50;;;;;;;;;;;;;;;;;;5076076;28;19908;-72
2023/09/22 15:00:16;;;;;;;;;;;;;;;;;;5075302;28;19915;-73
2023/09/22 15:02:45;;;;;;;;;;;;;;;;;;5076589;28;19948;-71
2023/09/22 15:05:10;;;;;;;;;;;;;;;;;;5076022;28;20337;-74
2023/09/22 15:07:36;;;;;;;;;;;;;;;;;;5075181;28;19908;-72
2023/09/22 15:10:03;;;;;;;;;;;;;;;;;;5076415;28;19955;-73
2023/09/22 15:12:31;;;;;;;;;;;;;;;;;;5076119;28;20315;-72
2023/09/22 15:15:00;;;;;;;;;;;;;;;;;;5076201;28;19909;-73
2023/09/22 15:17:26;;;;;;;;;;;;;;;;;;5076104;28;19913;-73
2023/09/22 15:19:52;;;;;;;;;;;;;;;;;;5076111;28;19916;-72
2023/09/22 15:22:19;;;;;;;;;;;;;;;;;;5076058;28;19912;-73
2023/09/22 15:24:45;;;;;;;;;;;;;;;;;;5075580;28;19916;-74
2023/09/22 15:27:11;;;;;;;;;;;;;;;;;;5075978;28;19912;-73
2023/09/22 15:29:37;;;;;;;;;;;;;;;;;;5076436;28;20003;-73
2023/09/22 15:32:03;;;;;;;;;;;;;;;;;;5075895;28;20303;-72
2023/09/22 15:34:31;;;;;;;;;;;;;;;;;;5075901;28;20313;-72
2023/09/22 15:36:57;;;;;;;;;;;;;;;;;;5075806;28;19915;-74
2023/09/22 15:39:23;;;;;;;;;;;;;;;;;;5075402;28;19908;-72
2023/09/22 15:41:49;;;;;;;;;;;;;;;;;;5075592;28;19909;-74
2023/09/22 15:44:16;;;;;;;;;;;;;;;;;;5075481;28;19989;-72
2023/09/22 15:46:42;;;;;;;;;;;;;;;;;;5075244;28;19908;-72
2023/09/22 15:49:09;;;;;;;;;;;;;;;;;;5075645;28;20062;-72
2023/09/22 15:51:36;;;;;;;;;;;;;;;;;;5074235;28;19909;-72
2023/09/22 15:54:02;;;;;;;;;;;;;;;;;;5073734;28;19931;-73
2023/09/22 15:56:28;;;;;;;;;;;;;;;;;;5076023;28;20245;-72
2023/09/22 15:58:54;;;;;;;;;;;;;;;;;;5075459;28;19956;-73
2023/09/22 16:01:20;;;;;;;;;;;;;;;;;;5075030;28;19908;-72
2023/09/22 16:03:46;;;;;;;;;;;;;;;;;;5075221;28;19909;-74
2023/09/22 16:06:13;;;;;;;;;;;;;;;;;;5075526;28;19913;-72
2023/09/22 16:08:40;;;;;;;;;;;;;;;;;;5074930;28;20337;-73
2023/09/22 16:11:06;;;;;;;;;;;;;;;;;;5075722;28;20002;-72
2023/09/22 16:13:32;;;;;;;;;;;;;;;;;;5073394;28;19995;-72
2023/09/22 16:15:58;;;;;;;;;;;;;;;;;;5075107;28;19909;-72
2023/09/22 16:18:23;;;;;;;;;;;;;;;;;;5075208;28;19962;-73
2023/09/22 16:20:49;;;;;;;;;;;;;;;;;;5074609;28;20007;-73
2023/09/22 16:23:15;;;;;;;;;;;;;;;;;;5074974;28;19913;-73
2023/09/22 16:25:41;;;;;;;;;;;;;;;;;;5074795;28;19916;-73
2023/09/22 16:28:07;;;;;;;;;;;;;;;;;;5074464;28;19909;-73
2023/09/22 16:30:33;;;;;;;;;;;;;;;;;;5074762;28;19915;-73
2023/09/22 16:32:59;;;;;;;;;;;;;;;;;;5074626;28;19909;-73
2023/09/22 16:35:25;;;;;;;;;;;;;;;;;;5074650;28;20340;-74
2023/09/22 16:37:51;;;;;;;;;;;;;;;;;;5074602;28;20299;-74
2023/09/22 16:40:17;;;;;;;;;;;;;;;;;;5074760;28;20356;-74
2023/09/22 16:42:43;;;;;;;;;;;;;;;;;;5074210;28;20406;-73
2023/09/22 16:45:09;;;;;;;;;;;;;;;;;;5074301;28;20440;-72
2023/09/22 16:47:35;;;;;;;;;;;;;;;;;;5075037;28;19916;-73
2023/09/22 16:50:01;;;;;;;;;;;;;;;;;;5073958;28;19908;-73
2023/09/22 16:52:27;;;;;;;;;;;;;;;;;;5074368;28;19909;-72
2023/09/22 16:54:53;;;;;;;;;;;;;;;;;;5073870;28;19916;-72
2023/09/22 16:57:19;;;;;;;;;;;;;;;;;;5073834;28;20360;-72
2023/09/22 16:59:45;;;;;;;;;;;;;;;;;;5072992;28;19909;-72
2023/09/22 17:02:11;;;;;;;;;;;;;;;;;;5074281;28;19954;-72
2023/09/22 17:04:37;;;;;;;;;;;;;;;;;;5073719;28;19924;-72
2023/09/22 17:07:05;;;;;;;;;;;;;;;;;;5074373;28;20305;-74
2023/09/22 17:09:30;;;;;;;;;;;;;;;;;;5074143;28;19909;-73
2023/09/22 17:11:56;;;;;;;;;;;;;;;;;;5072378;28;19909;-73
2023/09/22 17:14:23;;;;;;;;;;;;;;;;;;5072771;28;19908;-73
2023/09/22 17:16:49;;;;;;;;;;;;;;;;;;5073546;28;19916;-73
2023/09/22 17:19:15;;;;;;;;;;;;;;;;;;5074080;28;19962;-73
2023/09/22 17:21:42;;;;;;;;;;;;;;;;;;5072496;28;19908;-73
2023/09/22 17:24:08;;;;;;;;;;;;;;;;;;5073477;28;19934;-73
2023/09/22 17:26:34;;;;;;;;;;;;;;;;;;5073950;28;19991;-73
2023/09/22 17:29:00;;;;;;;;;;;;;;;;;;5072518;28;19909;-73
2023/09/22 17:31:26;;;;;;;;;;;;;;;;;;5073282;28;19909;-73
2023/09/22 17:33:52;;;;;;;;;;;;;;;;;;5073535;28;19931;-72
2023/09/22 17:36:21;;;;;;;;;;;;;;;;;;5073719;28;19935;-74
2023/09/22 17:38:47;;;;;;;;;;;;;;;;;;5073416;28;19943;-73
2023/09/22 17:41:14;;;;;;;;;;;;;;;;;;5073721;28;19909;-72
2023/09/22 17:43:40;;;;;;;;;;;;;;;;;;5072093;28;19916;-72
2023/09/22 17:46:08;;;;;;;;;;;;;;;;;;5072068;28;19944;-73
2023/09/22 17:48:34;;;;;;;;;;;;;;;;;;5073616;28;19909;-72
2023/09/22 17:51:00;;;;;;;;;;;;;;;;;;5073594;28;19915;-73
2023/09/22 17:53:27;;;;;;;;;;;;;;;;;;5073116;28;20271;-72
2023/09/22 17:55:53;;;;;;;;;;;;;;;;;;5073553;28;19939;-73
2023/09/22 18:00:43;;;;;;;;;;;;;;;;;;5111317;27;19919;-73
2023/09/22 18:03:09;;;;;;;;;;;;;;;;;;5110393;28;19965;-72
2023/09/22 18:05:35;;;;;;;;;;;;;;;;;;5110351;28;20284;-72
2023/09/22 18:08:01;;;;;;;;;;;;;;;;;;5111276;28;19908;-72
2023/09/22 18:10:27;;;;;;;;;;;;;;;;;;5111414;28;20388;-71
2023/09/22 18:12:53;;;;;;;;;;;;;;;;;;5111340;28;19943;-73
2023/09/22 18:15:19;;;;;;;;;;;;;;;;;;5111603;28;19943;-72
2023/09/22 18:17:46;;;;;;;;;;;;;;;;;;5111328;28;19912;-73
2023/09/22 18:20:23;;;;;;;;;;;;;;;;;;5111564;27;19916;-72
2023/09/22 18:22:49;;;;;;;;;;;;;;;;;;5110278;28;19912;-73
2023/09/22 18:25:15;;;;;;;;;;;;;;;;;;5111403;28;19908;-73
2023/09/22 18:27:41;;;;;;;;;;;;;;;;;;5111135;28;19908;-72
2023/09/22 18:30:07;;;;;;;;;;;;;;;;;;5111483;28;19908;-73
2023/09/22 18:32:35;;;;;;;;;;;;;;;;;;5110383;28;19920;-73
2023/09/22 18:37:00;;;;;;;;;;;;;;;;;;5132345;27;20022;-74
2023/09/22 18:39:27;;;;;;;;;;;;;;;;;;5132266;28;19959;-73
2023/09/22 18:41:53;;;;;;;;;;;;;;;;;;5131974;27;19907;-73
2023/09/22 18:44:19;;;;;;;;;;;;;;;;;;5132090;28;20260;-74
2023/09/22 18:46:45;;;;;;;;;;;;;;;;;;5130758;28;19933;-74